sensor_id;sensor_type;location;lat;lon;timestamp;pressure;altitude;pressure_sealevel;temperature;humidity
5126;BME280;63008;53.112;8.896;2023-02-28T00:01:01;103138.22;;;4.50;73.48
5126;BME280;63008;53.112;8.896;2023-02-28T00:03:02;103135.34;;;4.45;73.40
5126;BME280;63008;53.112;8.896;2023-02-28T00:05:04;103141.84;;;4.44;73.68
5126;BME280;63008;53.112;8.896;2023-02-28T00:07:05;103133.47;;;4.46;74.04
5126;BME280;63008;53.112;8.896;2023-02-28T00:09:06;103136.19;;;4.46;73.69
5126;BME280;63008;53.112;8.896;2023-02-28T00:11:10;103135.94;;;4.36;73.46
5126;BME280;63008;53.112;8.896;2023-02-28T00:13:11;103128.25;;;4.33;73.85
5126;BME280;63008;53.112;8.896;2023-02-28T00:15:12;103129.91;;;4.34;72.75
5126;BME280;63008;53.112;8.896;2023-02-28T00:17:13;103129.22;;;4.38;72.07
5126;BME280;63008;53.112;8.896;2023-02-28T00:19:14;103136.41;;;4.33;72.75
5126;BME280;63008;53.112;8.896;2023-02-28T00:21:16;103130.75;;;4.34;72.64
5126;BME280;63008;53.112;8.896;2023-02-28T00:23:18;103136.97;;;4.23;72.27
5126;BME280;63008;53.112;8.896;2023-02-28T00:25:22;103138.97;;;4.16;72.55
5126;BME280;63008;53.112;8.896;2023-02-28T00:27:23;103134.94;;;4.07;74.02
5126;BME280;63008;53.112;8.896;2023-02-28T00:29:24;103137.19;;;4.10;74.37
5126;BME280;63008;53.112;8.896;2023-02-28T00:31:25;103135.53;;;4.21;72.89
5126;BME280;63008;53.112;8.896;2023-02-28T00:33:27;103133.78;;;4.15;73.15
5126;BME280;63008;53.112;8.896;2023-02-28T00:35:28;103128.22;;;4.10;73.86
5126;BME280;63008;53.112;8.896;2023-02-28T00:37:29;103142.41;;;4.12;74.48
5126;BME280;63008;53.112;8.896;2023-02-28T00:39:30;103136.88;;;4.18;74.26
5126;BME280;63008;53.112;8.896;2023-02-28T00:41:31;103137.44;;;4.20;73.21
5126;BME280;63008;53.112;8.896;2023-02-28T00:43:34;103136.38;;;4.21;73.02
5126;BME280;63008;53.112;8.896;2023-02-28T00:45:35;103135.09;;;4.24;72.87
5126;BME280;63008;53.112;8.896;2023-02-28T00:47:36;103130.59;;;4.29;72.54
5126;BME280;63008;53.112;8.896;2023-02-28T00:49:40;103136.59;;;4.20;72.63
5126;BME280;63008;53.112;8.896;2023-02-28T00:51:41;103136.38;;;4.21;72.49
5126;BME280;63008;53.112;8.896;2023-02-28T00:53:42;103132.50;;;4.17;72.87
5126;BME280;63008;53.112;8.896;2023-02-28T00:55:43;103137.19;;;4.10;71.97
5126;BME280;63008;53.112;8.896;2023-02-28T00:57:44;103140.97;;;4.09;72.87
5126;BME280;63008;53.112;8.896;2023-02-28T00:59:45;103133.56;;;4.16;73.77
5126;BME280;63008;53.112;8.896;2023-02-28T01:01:46;103132.25;;;4.19;73.27
5126;BME280;63008;53.112;8.896;2023-02-28T01:03:47;103134.38;;;4.17;73.00
5126;BME280;63008;53.112;8.896;2023-02-28T01:05:48;103139.56;;;4.18;73.33
5126;BME280;63008;53.112;8.896;2023-02-28T01:07:49;103146.66;;;4.19;73.44
5126;BME280;63008;53.112;8.896;2023-02-28T01:09:50;103139.09;;;4.21;73.83
5126;BME280;63008;53.112;8.896;2023-02-28T01:11:51;103144.50;;;4.10;72.78
5126;BME280;63008;53.112;8.896;2023-02-28T01:13:52;103153.22;;;4.00;72.92
5126;BME280;63008;53.112;8.896;2023-02-28T01:15:55;103150.13;;;3.97;73.74
5126;BME280;63008;53.112;8.896;2023-02-28T01:17:58;103149.06;;;3.98;73.99
5126;BME280;63008;53.112;8.896;2023-02-28T01:19:58;103145.66;;;4.02;74.26
5126;BME280;63008;53.112;8.896;2023-02-28T01:22:03;103147.50;;;3.90;75.34
5126;BME280;63008;53.112;8.896;2023-02-28T01:24:05;103154.38;;;3.93;75.40
5126;BME280;63008;53.112;8.896;2023-02-28T01:26:14;103148.81;;;3.88;75.13
5126;BME280;63008;53.112;8.896;2023-02-28T01:28:16;103150.84;;;4.04;74.18
5126;BME280;63008;53.112;8.896;2023-02-28T01:30:17;103159.41;;;4.19;74.45
5126;BME280;63008;53.112;8.896;2023-02-28T01:32:18;103153.84;;;4.14;74.42
5126;BME280;63008;53.112;8.896;2023-02-28T01:34:19;103153.38;;;4.17;74.39
5126;BME280;63008;53.112;8.896;2023-02-28T01:36:22;103156.78;;;4.12;74.07
5126;BME280;63008;53.112;8.896;2023-02-28T01:38:23;103155.22;;;4.05;74.91
5126;BME280;63008;53.112;8.896;2023-02-28T01:40:24;103149.19;;;4.03;73.54
5126;BME280;63008;53.112;8.896;2023-02-28T01:42:25;103152.97;;;4.02;73.46
5126;BME280;63008;53.112;8.896;2023-02-28T01:45:02;103153.34;;;4.05;73.63
5126;BME280;63008;53.112;8.896;2023-02-28T01:47:04;103160.53;;;4.00;73.68
5126;BME280;63008;53.112;8.896;2023-02-28T01:49:09;103157.59;;;4.01;73.99
5126;BME280;63008;53.112;8.896;2023-02-28T01:51:26;103153.94;;;4.07;74.40
5126;BME280;63008;53.112;8.896;2023-02-28T01:53:33;103155.59;;;4.08;74.76
5126;BME280;63008;53.112;8.896;2023-02-28T01:55:36;103154.28;;;3.99;75.78
5126;BME280;63008;53.112;8.896;2023-02-28T01:57:41;103148.13;;;4.04;74.64
5126;BME280;63008;53.112;8.896;2023-02-28T01:59:48;103152.28;;;4.06;75.41
5126;BME280;63008;53.112;8.896;2023-02-28T02:01:50;103143.69;;;4.09;74.32
5126;BME280;63008;53.112;8.896;2023-02-28T02:03:55;103148.88;;;4.11;74.90
5126;BME280;63008;53.112;8.896;2023-02-28T02:05:57;103147.81;;;4.12;74.97
5126;BME280;63008;53.112;8.896;2023-02-28T02:08:03;103154.88;;;4.01;74.89
5126;BME280;63008;53.112;8.896;2023-02-28T02:10:16;103141.06;;;4.03;74.31
5126;BME280;63008;53.112;8.896;2023-02-28T02:12:47;103139.28;;;3.97;74.04
5126;BME280;63008;53.112;8.896;2023-02-28T02:15:05;103149.84;;;3.87;75.31
5126;BME280;63008;53.112;8.896;2023-02-28T02:17:22;103147.97;;;3.87;74.91
5126;BME280;63008;53.112;8.896;2023-02-28T02:19:37;103146.44;;;3.91;73.96
5126;BME280;63008;53.112;8.896;2023-02-28T02:22:12;103137.63;;;3.96;74.34
5126;BME280;63008;53.112;8.896;2023-02-28T02:26:44;103147.88;;;3.94;73.45
5126;BME280;63008;53.112;8.896;2023-02-28T02:36:23;103128.28;;;3.92;71.58
5126;BME280;63008;53.112;8.896;2023-02-28T02:38:36;103131.34;;;3.95;70.82
5126;BME280;63008;53.112;8.896;2023-02-28T02:40:56;103138.00;;;3.99;70.64
5126;BME280;63008;53.112;8.896;2023-02-28T02:45:21;103139.75;;;3.94;70.16
5126;BME280;63008;53.112;8.896;2023-02-28T02:47:26;103135.25;;;3.88;70.34
5126;BME280;63008;53.112;8.896;2023-02-28T02:49:31;103137.31;;;3.86;70.30
5126;BME280;63008;53.112;8.896;2023-02-28T02:51:33;103137.25;;;3.92;70.06
5126;BME280;63008;53.112;8.896;2023-02-28T02:53:38;103147.19;;;3.98;69.37
5126;BME280;63008;53.112;8.896;2023-02-28T02:55:45;103142.59;;;3.99;68.78
5126;BME280;63008;53.112;8.896;2023-02-28T02:57:51;103142.44;;;3.94;68.87
5126;BME280;63008;53.112;8.896;2023-02-28T02:59:55;103137.31;;;3.86;68.41
5126;BME280;63008;53.112;8.896;2023-02-28T03:01:59;103141.47;;;3.88;68.36
5126;BME280;63008;53.112;8.896;2023-02-28T03:04:13;103144.41;;;3.87;67.90
5126;BME280;63008;53.112;8.896;2023-02-28T03:06:19;103140.59;;;3.76;68.16
5126;BME280;63008;53.112;8.896;2023-02-28T03:08:20;103140.84;;;3.75;69.04
5126;BME280;63008;53.112;8.896;2023-02-28T03:10:42;103136.00;;;3.77;68.16
5126;BME280;63008;53.112;8.896;2023-02-28T03:12:53;103139.28;;;3.67;68.61
5126;BME280;63008;53.112;8.896;2023-02-28T03:15:20;103137.72;;;3.60;68.81
5126;BME280;63008;53.112;8.896;2023-02-28T03:17:39;103143.25;;;3.65;68.73
5126;BME280;63008;53.112;8.896;2023-02-28T03:20:04;103138.44;;;3.67;68.73
5126;BME280;63008;53.112;8.896;2023-02-28T03:22:29;103130.03;;;3.57;68.76
5126;BME280;63008;53.112;8.896;2023-02-28T03:24:44;103136.81;;;3.48;69.11
5126;BME280;63008;53.112;8.896;2023-02-28T03:26:57;103137.41;;;3.50;68.81
5126;BME280;63008;53.112;8.896;2023-02-28T03:29:05;103142.25;;;3.48;68.74
5126;BME280;63008;53.112;8.896;2023-02-28T03:31:31;103141.88;;;3.45;68.57
5126;BME280;63008;53.112;8.896;2023-02-28T03:33:34;103141.97;;;3.38;69.36
5126;BME280;63008;53.112;8.896;2023-02-28T03:35:43;103140.31;;;3.37;69.27
5126;BME280;63008;53.112;8.896;2023-02-28T03:37:55;103144.06;;;3.36;69.25
5126;BME280;63008;53.112;8.896;2023-02-28T03:40:04;103152.03;;;3.31;69.52
5126;BME280;63008;53.112;8.896;2023-02-28T03:42:17;103151.44;;;3.29;69.59
5126;BME280;63008;53.112;8.896;2023-02-28T03:44:29;103145.28;;;3.22;69.76
5126;BME280;63008;53.112;8.896;2023-02-28T03:46:36;103150.84;;;3.09;70.04
5126;BME280;63008;53.112;8.896;2023-02-28T03:48:43;103146.84;;;2.94;70.61
5126;BME280;63008;53.112;8.896;2023-02-28T03:50:48;103139.38;;;2.89;70.89
5126;BME280;63008;53.112;8.896;2023-02-28T03:53:04;103144.66;;;2.84;70.84
5126;BME280;63008;53.112;8.896;2023-02-28T03:55:11;103148.34;;;2.90;70.81
5126;BME280;63008;53.112;8.896;2023-02-28T03:57:26;103148.84;;;2.80;71.30
5126;BME280;63008;53.112;8.896;2023-02-28T03:59:36;103151.19;;;2.77;71.24
5126;BME280;63008;53.112;8.896;2023-02-28T04:01:43;103164.16;;;2.75;71.26
5126;BME280;63008;53.112;8.896;2023-02-28T04:03:45;103152.91;;;2.71;71.34
5126;BME280;63008;53.112;8.896;2023-02-28T04:05:54;103153.38;;;2.68;71.78
5126;BME280;63008;53.112;8.896;2023-02-28T04:08:06;103162.34;;;2.62;72.07
5126;BME280;63008;53.112;8.896;2023-02-28T04:10:09;103165.25;;;2.67;72.36
5126;BME280;63008;53.112;8.896;2023-02-28T04:12:10;103166.66;;;2.70;71.87
5126;BME280;63008;53.112;8.896;2023-02-28T04:14:12;103168.41;;;2.64;71.93
5126;BME280;63008;53.112;8.896;2023-02-28T04:16:13;103164.84;;;2.64;72.03
5126;BME280;63008;53.112;8.896;2023-02-28T04:18:13;103170.50;;;2.62;72.09
5126;BME280;63008;53.112;8.896;2023-02-28T04:20:15;103168.84;;;2.61;72.17
5126;BME280;63008;53.112;8.896;2023-02-28T04:22:16;103169.06;;;2.60;72.34
5126;BME280;63008;53.112;8.896;2023-02-28T04:24:23;103168.06;;;2.54;72.16
5126;BME280;63008;53.112;8.896;2023-02-28T04:26:24;103164.72;;;2.59;71.88
5126;BME280;63008;53.112;8.896;2023-02-28T04:28:25;103166.97;;;2.62;71.56
5126;BME280;63008;53.112;8.896;2023-02-28T04:30:26;103167.63;;;2.57;71.59
5126;BME280;63008;53.112;8.896;2023-02-28T04:32:27;103167.88;;;2.56;71.50
5126;BME280;63008;53.112;8.896;2023-02-28T04:34:31;103167.88;;;2.56;71.52
5126;BME280;63008;53.112;8.896;2023-02-28T04:36:32;103164.31;;;2.55;71.33
5126;BME280;63008;53.112;8.896;2023-02-28T04:38:36;103167.88;;;2.56;71.58
5126;BME280;63008;53.112;8.896;2023-02-28T04:40:37;103175.19;;;2.49;71.88
5126;BME280;63008;53.112;8.896;2023-02-28T04:42:38;103174.19;;;2.43;72.43
5126;BME280;63008;53.112;8.896;2023-02-28T04:44:39;103172.16;;;2.39;73.31
5126;BME280;63008;53.112;8.896;2023-02-28T04:46:40;103168.81;;;2.37;72.95
5126;BME280;63008;53.112;8.896;2023-02-28T04:48:41;103159.47;;;2.33;72.94
5126;BME280;63008;53.112;8.896;2023-02-28T04:50:44;103158.22;;;2.35;72.70
5126;BME280;63008;53.112;8.896;2023-02-28T04:52:45;103167.72;;;2.44;72.26
5126;BME280;63008;53.112;8.896;2023-02-28T04:54:46;103163.25;;;2.32;72.50
5126;BME280;63008;53.112;8.896;2023-02-28T04:56:47;103166.44;;;2.22;72.93
5126;BME280;63008;53.112;8.896;2023-02-28T04:58:50;103171.69;;;2.17;72.92
5126;BME280;63008;53.112;8.896;2023-02-28T05:00:54;103166.47;;;2.16;73.34
5126;BME280;63008;53.112;8.896;2023-02-28T05:03:01;103177.28;;;2.22;73.32
5126;BME280;63008;53.112;8.896;2023-02-28T05:05:02;103170.47;;;2.13;73.17
5126;BME280;63008;53.112;8.896;2023-02-28T05:07:03;103179.25;;;2.09;73.60
5126;BME280;63008;53.112;8.896;2023-02-28T05:09:04;103167.16;;;2.11;73.70
5126;BME280;63008;53.112;8.896;2023-02-28T05:11:15;103166.63;;;1.96;73.79
5126;BME280;63008;53.112;8.896;2023-02-28T05:13:17;103170.56;;;2.00;73.98
5126;BME280;63008;53.112;8.896;2023-02-28T05:15:18;103174.03;;;2.07;73.45
5126;BME280;63008;53.112;8.896;2023-02-28T05:17:19;103166.75;;;2.08;73.44
5126;BME280;63008;53.112;8.896;2023-02-28T05:19:22;103170.72;;;2.05;73.60
5126;BME280;63008;53.112;8.896;2023-02-28T05:21:25;103175.97;;;2.00;73.64
5126;BME280;63008;53.112;8.896;2023-02-28T05:23:26;103168.94;;;1.93;74.17
5126;BME280;63008;53.112;8.896;2023-02-28T05:25:28;103171.91;;;1.85;74.30
5126;BME280;63008;53.112;8.896;2023-02-28T05:27:29;103173.78;;;1.78;74.53
5126;BME280;63008;53.112;8.896;2023-02-28T05:29:30;103167.25;;;1.55;74.94
5126;BME280;63008;53.112;8.896;2023-02-28T05:31:31;103168.09;;;1.55;75.61
5126;BME280;63008;53.112;8.896;2023-02-28T05:33:32;103177.72;;;1.45;75.75
5126;BME280;63008;53.112;8.896;2023-02-28T05:35:33;103175.03;;;1.32;75.93
5126;BME280;63008;53.112;8.896;2023-02-28T05:37:34;103171.91;;;1.35;76.35
5126;BME280;63008;53.112;8.896;2023-02-28T05:39:35;103182.53;;;1.30;76.17
5126;BME280;63008;53.112;8.896;2023-02-28T05:41:36;103177.19;;;1.10;76.82
5126;BME280;63008;53.112;8.896;2023-02-28T05:43:37;103171.81;;;0.91;77.40
5126;BME280;63008;53.112;8.896;2023-02-28T05:45:38;103181.78;;;1.03;77.87
5126;BME280;63008;53.112;8.896;2023-02-28T05:47:39;103177.78;;;1.19;77.53
5126;BME280;63008;53.112;8.896;2023-02-28T05:49:41;103184.25;;;1.11;77.38
5126;BME280;63008;53.112;8.896;2023-02-28T05:51:42;103174.69;;;1.09;77.68
5126;BME280;63008;53.112;8.896;2023-02-28T05:53:43;103176.97;;;1.12;77.70
5126;BME280;63008;53.112;8.896;2023-02-28T05:55:44;103183.88;;;1.01;78.24
5126;BME280;63008;53.112;8.896;2023-02-28T05:57:45;103182.59;;;1.10;78.22
5126;BME280;63008;53.112;8.896;2023-02-28T05:59:46;103183.00;;;1.07;78.30
5126;BME280;63008;53.112;8.896;2023-02-28T06:01:47;103187.19;;;0.97;78.38
5126;BME280;63008;53.112;8.896;2023-02-28T06:03:50;103190.09;;;1.02;78.44
5126;BME280;63008;53.112;8.896;2023-02-28T06:05:52;103188.22;;;0.96;78.56
5126;BME280;63008;53.112;8.896;2023-02-28T06:07:53;103195.94;;;0.86;78.90
5126;BME280;63008;53.112;8.896;2023-02-28T06:09:54;103192.59;;;0.84;79.21
5126;BME280;63008;53.112;8.896;2023-02-28T06:11:58;103195.72;;;0.87;78.83
5126;BME280;63008;53.112;8.896;2023-02-28T06:13:59;103200.50;;;0.92;79.04
5126;BME280;63008;53.112;8.896;2023-02-28T06:16:01;103203.41;;;0.97;78.67
5126;BME280;63008;53.112;8.896;2023-02-28T06:18:02;103202.16;;;0.99;78.61
5126;BME280;63008;53.112;8.896;2023-02-28T06:20:04;103211.28;;;1.05;77.71
5126;BME280;63008;53.112;8.896;2023-02-28T06:22:10;103214.41;;;1.02;77.83
5126;BME280;63008;53.112;8.896;2023-02-28T06:24:11;103211.53;;;0.84;78.56
5126;BME280;63008;53.112;8.896;2023-02-28T06:26:12;103207.38;;;0.81;78.75
5126;BME280;63008;53.112;8.896;2023-02-28T06:28:13;103206.34;;;0.76;79.02
5126;BME280;63008;53.112;8.896;2023-02-28T06:30:14;103207.16;;;0.83;78.92
5126;BME280;63008;53.112;8.896;2023-02-28T06:32:15;103210.91;;;0.88;78.66
5126;BME280;63008;53.112;8.896;2023-02-28T06:34:17;103211.31;;;0.92;78.69
5126;BME280;63008;53.112;8.896;2023-02-28T06:36:18;103215.06;;;0.91;78.11
5126;BME280;63008;53.112;8.896;2023-02-28T06:38:19;103216.72;;;0.92;78.14
5126;BME280;63008;53.112;8.896;2023-02-28T06:40:21;103221.50;;;0.90;78.30
5126;BME280;63008;53.112;8.896;2023-02-28T06:42:22;103215.06;;;0.91;78.22
5126;BME280;63008;53.112;8.896;2023-02-28T06:44:29;103222.56;;;0.89;78.29
5126;BME280;63008;53.112;8.896;2023-02-28T06:46:35;103221.47;;;0.96;78.61
5126;BME280;63008;53.112;8.896;2023-02-28T06:48:36;103222.13;;;0.98;78.58
5126;BME280;63008;53.112;8.896;2023-02-28T06:50:37;103222.13;;;0.98;78.26
5126;BME280;63008;53.112;8.896;2023-02-28T06:52:39;103220.03;;;0.94;78.60
5126;BME280;63008;53.112;8.896;2023-02-28T06:54:40;103218.38;;;0.93;78.92
5126;BME280;63008;53.112;8.896;2023-02-28T06:56:40;103221.28;;;0.98;78.73
5126;BME280;63008;53.112;8.896;2023-02-28T06:58:45;103218.78;;;0.96;78.39
5126;BME280;63008;53.112;8.896;2023-02-28T07:00:50;103228.53;;;1.04;78.38
5126;BME280;63008;53.112;8.896;2023-02-28T07:02:51;103223.56;;;1.14;78.03
5126;BME280;63008;53.112;8.896;2023-02-28T07:04:54;103223.13;;;1.23;77.36
5126;BME280;63008;53.112;8.896;2023-02-28T07:06:55;103220.84;;;1.27;77.46
5126;BME280;63008;53.112;8.896;2023-02-28T07:08:58;103221.88;;;1.19;77.56
5126;BME280;63008;53.112;8.896;2023-02-28T07:10:59;103234.16;;;1.15;78.12
5126;BME280;63008;53.112;8.896;2023-02-28T07:13:00;103232.88;;;1.24;77.72
5126;BME280;63008;53.112;8.896;2023-02-28T07:15:01;103235.59;;;1.31;77.88
5126;BME280;63008;53.112;8.896;2023-02-28T07:17:02;103235.81;;;1.16;78.19
5126;BME280;63008;53.112;8.896;2023-02-28T07:19:04;103242.28;;;1.15;78.27
5126;BME280;63008;53.112;8.896;2023-02-28T07:21:07;103243.69;;;1.24;78.16
5126;BME280;63008;53.112;8.896;2023-02-28T07:23:08;103241.78;;;1.38;77.78
5126;BME280;63008;53.112;8.896;2023-02-28T07:25:09;103240.34;;;1.42;77.33
5126;BME280;63008;53.112;8.896;2023-02-28T07:27:10;103256.53;;;1.55;76.91
5126;BME280;63008;53.112;8.896;2023-02-28T07:29:11;103238.00;;;1.52;76.93
5126;BME280;63008;53.112;8.896;2023-02-28T07:31:13;103242.63;;;1.51;77.37
5126;BME280;63008;53.112;8.896;2023-02-28T07:33:15;103244.88;;;1.61;77.19
5126;BME280;63008;53.112;8.896;2023-02-28T07:35:16;103242.09;;;1.73;76.80
5126;BME280;63008;53.112;8.896;2023-02-28T07:37:17;103240.00;;;1.75;76.30
5126;BME280;63008;53.112;8.896;2023-02-28T07:39:18;103249.38;;;1.79;76.18
5126;BME280;63008;53.112;8.896;2023-02-28T07:41:20;103250.59;;;1.83;75.75
5126;BME280;63008;53.112;8.896;2023-02-28T07:43:22;103256.63;;;1.85;75.99
5126;BME280;63008;53.112;8.896;2023-02-28T07:45:23;103254.72;;;1.92;76.30
5126;BME280;63008;53.112;8.896;2023-02-28T07:47:24;103247.00;;;1.96;75.72
5126;BME280;63008;53.112;8.896;2023-02-28T07:49:25;103255.94;;;2.03;75.45
5126;BME280;63008;53.112;8.896;2023-02-28T07:51:26;103251.50;;;2.08;75.33
5126;BME280;63008;53.112;8.896;2023-02-28T07:53:27;103256.09;;;2.14;75.70
5126;BME280;63008;53.112;8.896;2023-02-28T07:55:28;103255.41;;;2.19;75.17
5126;BME280;63008;53.112;8.896;2023-02-28T07:57:29;103250.63;;;2.21;75.27
5126;BME280;63008;53.112;8.896;2023-02-28T07:59:30;103247.44;;;2.30;75.07
5126;BME280;63008;53.112;8.896;2023-02-28T08:01:31;103253.66;;;2.37;74.58
5126;BME280;63008;53.112;8.896;2023-02-28T08:03:32;103259.06;;;2.37;74.34
5126;BME280;63008;53.112;8.896;2023-02-28T08:05:38;103248.81;;;2.46;74.38
5126;BME280;63008;53.112;8.896;2023-02-28T08:07:39;103250.81;;;2.57;73.41
5126;BME280;63008;53.112;8.896;2023-02-28T08:09:40;103255.34;;;2.63;73.07
5126;BME280;63008;53.112;8.896;2023-02-28T08:11:41;103260.88;;;2.74;72.97
5126;BME280;63008;53.112;8.896;2023-02-28T08:13:43;103262.91;;;2.85;72.61
5126;BME280;63008;53.112;8.896;2023-02-28T08:15:44;103255.38;;;2.87;72.30
5126;BME280;63008;53.112;8.896;2023-02-28T08:17:46;103255.31;;;2.94;72.10
5126;BME280;63008;53.112;8.896;2023-02-28T08:19:47;103264.00;;;3.02;71.49
5126;BME280;63008;53.112;8.896;2023-02-28T08:21:48;103259.53;;;3.08;71.52
5126;BME280;63008;53.112;8.896;2023-02-28T08:23:50;103256.84;;;3.08;71.60
5126;BME280;63008;53.112;8.896;2023-02-28T08:25:55;103253.31;;;3.07;70.91
5126;BME280;63008;53.112;8.896;2023-02-28T08:27:56;103264.56;;;3.11;70.81
5126;BME280;63008;53.112;8.896;2023-02-28T08:29:57;103261.84;;;3.11;70.48
5126;BME280;63008;53.112;8.896;2023-02-28T08:31:58;103259.22;;;3.22;69.57
5126;BME280;63008;53.112;8.896;2023-02-28T08:33:59;103262.47;;;3.31;68.99
5126;BME280;63008;53.112;8.896;2023-02-28T08:36:00;103265.50;;;3.41;68.58
5126;BME280;63008;53.112;8.896;2023-02-28T08:38:01;103267.94;;;3.49;68.38
5126;BME280;63008;53.112;8.896;2023-02-28T08:40:02;103258.88;;;3.54;68.15
5126;BME280;63008;53.112;8.896;2023-02-28T08:42:04;103259.53;;;3.68;67.12
5126;BME280;63008;53.112;8.896;2023-02-28T08:44:05;103261.72;;;3.77;67.02
5126;BME280;63008;53.112;8.896;2023-02-28T08:46:07;103262.13;;;3.81;67.46
5126;BME280;63008;53.112;8.896;2023-02-28T08:48:08;103260.97;;;3.88;66.73
5126;BME280;63008;53.112;8.896;2023-02-28T08:50:09;103262.63;;;4.07;67.05
5126;BME280;63008;53.112;8.896;2023-02-28T08:52:11;103266.22;;;4.49;66.45
5126;BME280;63008;53.112;8.896;2023-02-28T08:54:11;103262.19;;;5.04;63.54
5126;BME280;63008;53.112;8.896;2023-02-28T08:56:14;103259.69;;;5.59;61.65
5126;BME280;63008;53.112;8.896;2023-02-28T08:58:16;103268.25;;;6.14;60.62
5126;BME280;63008;53.112;8.896;2023-02-28T09:00:18;103268.28;;;6.58;58.69
5126;BME280;63008;53.112;8.896;2023-02-28T09:02:19;103274.44;;;6.82;57.13
5126;BME280;63008;53.112;8.896;2023-02-28T09:04:20;103267.97;;;6.71;55.90
5126;BME280;63008;53.112;8.896;2023-02-28T09:06:23;103272.13;;;6.90;54.95
5126;BME280;63008;53.112;8.896;2023-02-28T09:08:25;103266.19;;;6.93;53.24
5126;BME280;63008;53.112;8.896;2023-02-28T09:10:26;103269.47;;;6.95;53.63
5126;BME280;63008;53.112;8.896;2023-02-28T09:12:32;103266.47;;;7.29;52.43
5126;BME280;63008;53.112;8.896;2023-02-28T09:14:34;103271.97;;;7.67;51.52
5126;BME280;63008;53.112;8.896;2023-02-28T09:16:35;103267.47;;;7.78;50.44
5126;BME280;63008;53.112;8.896;2023-02-28T09:18:36;103270.03;;;7.84;50.36
5126;BME280;63008;53.112;8.896;2023-02-28T09:20:38;103268.22;;;8.16;49.26
5126;BME280;63008;53.112;8.896;2023-02-28T09:22:40;103273.00;;;8.04;48.45
5126;BME280;63008;53.112;8.896;2023-02-28T09:24:41;103267.84;;;7.86;48.38
5126;BME280;63008;53.112;8.896;2023-02-28T09:26:42;103268.81;;;8.18;48.51
5126;BME280;63008;53.112;8.896;2023-02-28T09:28:43;103266.50;;;8.10;48.43
5126;BME280;63008;53.112;8.896;2023-02-28T09:30:46;103259.88;;;7.63;48.52
5126;BME280;63008;53.112;8.896;2023-02-28T09:32:47;103266.72;;;7.44;46.59
5126;BME280;63008;53.112;8.896;2023-02-28T09:34:52;103266.44;;;7.84;46.38
5126;BME280;63008;53.112;8.896;2023-02-28T09:36:53;103264.66;;;7.51;47.39
5126;BME280;63008;53.112;8.896;2023-02-28T09:38:55;103270.44;;;7.76;45.60
5126;BME280;63008;53.112;8.896;2023-02-28T09:41:00;103268.59;;;7.82;46.54
5126;BME280;63008;53.112;8.896;2023-02-28T09:43:01;103262.25;;;7.76;45.74
5126;BME280;63008;53.112;8.896;2023-02-28T09:45:06;103261.63;;;7.69;45.85
5126;BME280;63008;53.112;8.896;2023-02-28T09:47:26;103270.50;;;7.81;45.32
5126;BME280;63008;53.112;8.896;2023-02-28T09:49:44;103268.44;;;7.88;46.26
5126;BME280;63008;53.112;8.896;2023-02-28T09:52:01;103269.19;;;7.84;47.31
5126;BME280;63008;53.112;8.896;2023-02-28T09:54:02;103277.84;;;8.19;46.25
5126;BME280;63008;53.112;8.896;2023-02-28T09:56:12;103279.53;;;8.46;44.35
5126;BME280;63008;53.112;8.896;2023-02-28T09:58:22;103279.84;;;8.23;46.28
5126;BME280;63008;53.112;8.896;2023-02-28T10:00:30;103279.34;;;8.53;44.59
5126;BME280;63008;53.112;8.896;2023-02-28T10:05:08;103276.59;;;8.53;44.06
5126;BME280;63008;53.112;8.896;2023-02-28T10:09:24;103276.44;;;8.38;43.67
5126;BME280;63008;53.112;8.896;2023-02-28T10:11:27;103272.78;;;7.68;45.17
5126;BME280;63008;53.112;8.896;2023-02-28T10:15:54;103283.31;;;8.98;45.60
5126;BME280;63008;53.112;8.896;2023-02-28T10:18:00;103287.41;;;8.96;44.89
5126;BME280;63008;53.112;8.896;2023-02-28T10:20:07;103279.00;;;8.01;45.50
5126;BME280;63008;53.112;8.896;2023-02-28T10:22:22;103279.75;;;7.97;45.46
5126;BME280;63008;53.112;8.896;2023-02-28T10:24:45;103281.50;;;8.51;43.49
5126;BME280;63008;53.112;8.896;2023-02-28T10:26:48;103277.84;;;8.67;46.33
5126;BME280;63008;53.112;8.896;2023-02-28T10:28:52;103285.38;;;8.55;45.80
5126;BME280;63008;53.112;8.896;2023-02-28T10:30:54;103283.56;;;8.39;46.30
5126;BME280;63008;53.112;8.896;2023-02-28T10:32:55;103289.59;;;8.67;46.65
5126;BME280;63008;53.112;8.896;2023-02-28T10:35:00;103291.47;;;9.19;43.56
5126;BME280;63008;53.112;8.896;2023-02-28T10:37:03;103292.03;;;9.21;43.64
5126;BME280;63008;53.112;8.896;2023-02-28T10:39:42;103286.63;;;8.42;46.75
5126;BME280;63008;53.112;8.896;2023-02-28T10:41:43;103280.19;;;8.10;47.13
5126;BME280;63008;53.112;8.896;2023-02-28T10:43:44;103280.38;;;8.04;48.02
5126;BME280;63008;53.112;8.896;2023-02-28T10:50:43;103267.72;;;9.81;44.01
5126;BME280;63008;53.112;8.896;2023-02-28T10:52:45;103268.03;;;9.90;42.60
5126;BME280;63008;53.112;8.896;2023-02-28T10:54:46;103270.00;;;9.94;42.73
5126;BME280;63008;53.112;8.896;2023-02-28T10:57:06;103276.13;;;10.11;42.09
5126;BME280;63008;53.112;8.896;2023-02-28T11:01:14;103269.59;;;9.71;42.82
5126;BME280;63008;53.112;8.896;2023-02-28T11:03:31;103271.75;;;10.20;42.20
5126;BME280;63008;53.112;8.896;2023-02-28T11:05:35;103274.28;;;9.75;42.21
5126;BME280;63008;53.112;8.896;2023-02-28T11:07:37;103274.47;;;10.10;42.36
5126;BME280;63008;53.112;8.896;2023-02-28T11:09:40;103265.19;;;9.65;41.67
5126;BME280;63008;53.112;8.896;2023-02-28T11:11:43;103268.44;;;10.08;42.25
5126;BME280;63008;53.112;8.896;2023-02-28T11:13:46;103272.34;;;10.32;42.57
5126;BME280;63008;53.112;8.896;2023-02-28T11:15:56;103267.41;;;10.34;42.22
5126;BME280;63008;53.112;8.896;2023-02-28T11:18:00;103264.44;;;9.84;44.79
5126;BME280;63008;53.112;8.896;2023-02-28T11:20:05;103263.78;;;9.57;46.20
5126;BME280;63008;53.112;8.896;2023-02-28T11:22:07;103262.78;;;9.78;45.09
5126;BME280;63008;53.112;8.896;2023-02-28T11:24:29;103261.38;;;9.71;43.08
5126;BME280;63008;53.112;8.896;2023-02-28T11:26:37;103262.88;;;9.98;42.74
5126;BME280;63008;53.112;8.896;2023-02-28T11:28:40;103257.31;;;10.65;41.13
5126;BME280;63008;53.112;8.896;2023-02-28T11:30:44;103256.78;;;10.68;41.41
5126;BME280;63008;53.112;8.896;2023-02-28T11:32:48;103268.50;;;10.28;44.20